Wednesday, November 22, 2017, 12:52 PM GMT
Back to Local

CWST, La Pocatiere

Location: , , Canada Lat: 47.35
Local Time: 12:52 PM GMT (12:52 GMT) Lon: -70.033
Time Zone: GMT Elev: 101 ft

Show me the last for .
Show Decoded

2017-11-22 12:00 METAR CWST 221200Z AUTO 00000KT M00/M02 RMK AO1 SOG 33 1009 SLP119 T10031017 =
2017-11-22 11:00 METAR CWST 221100Z AUTO 22002KT M00/M02 RMK AO1 SLP118 T10021019 53010 =
2017-11-22 10:00 METAR CWST 221000Z AUTO 24001KT M00/M02 RMK AO1 SLP113 T10041019 53007 =
2017-11-22 09:00 METAR CWST 220900Z AUTO 16001KT M02/M03 RMK AO1 SLP110 T10161027 51009 =
2017-11-22 08:00 METAR CWST 220800Z AUTO 21003KT M03/M04 RMK AO1 SLP108 T10331043 51010 =
2017-11-22 07:00 METAR CWST 220700Z AUTO 23002KT M03/M04 RMK AO1 SLP106 T10291040 51014 =
2017-11-22 06:00 METAR CWST 220600Z AUTO 25001KT M03/M04 RMK AO1 SLP101 T10271040 53010 =
2017-11-22 05:00 METAR CWST 220500Z AUTO 23002KT M02/M04 RMK AO1 SLP098 T10201038 53009 =
2017-11-22 04:00 METAR CWST 220400Z AUTO 24004KT M01/M05 RMK AO1 SLP092 T10121046 53003 =
2017-11-22 03:00 METAR CWST 220300Z AUTO 23001KT M04/M06 RMK AO1 SLP091 T10381057 53002 =
2017-11-22 02:00 METAR CWST 220200Z AUTO 20002KT M04/M06 RMK AO1 SLP089 T10371061 56002 =
2017-11-22 01:00 METAR CWST 220100Z AUTO 25005KT M01/M05 RMK AO1 SLP089 T10141052 51007 =
2017-11-22 00:00 METAR CWST 220000Z AUTO 03003KT M03/M06 RMK AO1 SLP089 T10321061 50005 =
2017-11-21 23:00 METAR CWST 212300Z AUTO 06001KT M03/M06 RMK AO1 SLP091 T10301057 53007 =
2017-11-21 22:00 METAR CWST 212200Z AUTO 02001KT M03/M06 RMK AO1 SLP082 T10271057 58003 =
2017-11-21 21:00 METAR CWST 212100Z AUTO 00000KT M02/M06 RMK AO1 SOG 115 6003 SLP084 T10231058 =
2017-11-21 20:00 METAR CWST 212000Z AUTO 10001KT M02/M07 RMK AO1 SLP084 T10181072 56012 =
2017-11-21 19:00 METAR CWST 211900Z AUTO 28003KT M02/M08 RMK AO1 SLP085 T10241075 56021 =
2017-11-21 18:00 METAR CWST 211800Z AUTO 32003KT M02/M08 RMK AO1 SLP087 T10181080 56036 =
2017-11-21 17:00 METAR CWST 211700Z AUTO 34003KT M03/M09 RMK AO1 SLP096 T10281090 57037 =
2017-11-21 16:00 METAR CWST 211600Z AUTO 21002KT M04/M08 RMK AO1 SLP106 T10371083 58030 =
2017-11-21 15:00 METAR CWST 211500Z AUTO 16006KT M06/M10 RMK AO1 SLP123 T10571104 58021 =
2017-11-21 14:00 METAR CWST 211400Z AUTO 15009KT M07/M12 RMK AO1 SLP134 T10701115 58010 =
2017-11-21 13:00 METAR CWST 211300Z AUTO 15008KT M07/M12 RMK AO1 SLP137 T10651118 58006 =

Support USWX by starting your Amazon purchase here.